Time;durP1;ratioP1;P1;durP2;ratioP2;P2;SDS_P1;SDS_P2;PMS_P1;PMS_P2;Temp;Humidity;BMP_temperature;BMP_pressure;BME280_temperature;BME280_humidity;BME280_pressure;Samples;Min_cycle;Max_cycle;Signal;HPM_P1;HPM_P2
2022/07/08 00:01:25;;;;;;;32.72;4.43;;;;;;;;;;5046774;28;20036;-78
2022/07/08 00:03:51;;;;;;;35.33;7.63;;;;;;;;;;5040216;28;20068;-78
2022/07/08 00:06:17;;;;;;;21.55;3.85;;;;;;;;;;5036284;28;20025;-78
2022/07/08 00:08:44;;;;;;;34.58;4.28;;;;;;;;;;5037129;28;20029;-79
2022/07/08 00:11:10;;;;;;;25.02;3.58;;;;;;;;;;5036301;28;20507;-78
2022/07/08 00:13:36;;;;;;;31.95;4.18;;;;;;;;;;5043686;28;20112;-77
2022/07/08 00:16:03;;;;;;;27.83;4.32;;;;;;;;;;5058028;28;20014;-76
2022/07/08 00:18:29;;;;;;;29.05;4.03;;;;;;;;;;5057643;28;20034;-74
2022/07/08 00:20:55;;;;;;;22.08;4.45;;;;;;;;;;5057641;28;20025;-77
2022/07/08 00:23:24;;;;;;;26.67;4.03;;;;;;;;;;5057759;28;20017;-76
2022/07/08 00:25:51;;;;;;;36.42;5.35;;;;;;;;;;5057120;28;20069;-74
2022/07/08 00:28:17;;;;;;;31.88;4.82;;;;;;;;;;5057130;28;20031;-76
2022/07/08 00:30:43;;;;;;;33.60;4.38;;;;;;;;;;5056618;28;20036;-75
2022/07/08 00:33:09;;;;;;;24.13;3.42;;;;;;;;;;5056850;28;20022;-76
2022/07/08 00:35:35;;;;;;;33.72;4.40;;;;;;;;;;5056733;28;20048;-74
2022/07/08 00:38:01;;;;;;;36.08;4.63;;;;;;;;;;5053250;28;20030;-76
2022/07/08 00:40:27;;;;;;;31.30;3.60;;;;;;;;;;5047567;28;20092;-76
2022/07/08 00:42:53;;;;;;;26.95;4.00;;;;;;;;;;5036390;28;20056;-76
2022/07/08 00:45:19;;;;;;;27.83;3.97;;;;;;;;;;5049560;28;20045;-76
2022/07/08 00:47:45;;;;;;;20.42;3.03;;;;;;;;;;5056644;28;20017;-76
2022/07/08 00:50:12;;;;;;;24.92;4.50;;;;;;;;;;5056395;28;20049;-75
2022/07/08 00:52:38;;;;;;;22.63;3.70;;;;;;;;;;5056154;28;20014;-77
2022/07/08 00:55:05;;;;;;;32.70;4.20;;;;;;;;;;5056117;28;20040;-77
2022/07/08 00:57:31;;;;;;;27.48;3.78;;;;;;;;;;5057419;28;20014;-75
2022/07/08 00:59:58;;;;;;;30.30;4.15;;;;;;;;;;5057049;28;20061;-77
2022/07/08 01:02:24;;;;;;;31.08;4.38;;;;;;;;;;5052093;28;20029;-77
2022/07/08 01:04:50;;;;;;;26.83;3.88;;;;;;;;;;5052211;28;20025;-76
2022/07/08 01:07:17;;;;;;;31.95;4.38;;;;;;;;;;5053075;28;20055;-77
2022/07/08 01:09:43;;;;;;;27.50;4.30;;;;;;;;;;5052882;28;20113;-77
2022/07/08 01:12:09;;;;;;;21.95;3.63;;;;;;;;;;5053734;28;20033;-76
2022/07/08 01:14:35;;;;;;;36.90;4.22;;;;;;;;;;5056551;28;20028;-76
2022/07/08 01:17:01;;;;;;;30.63;3.97;;;;;;;;;;5054145;28;20013;-76
2022/07/08 01:19:27;;;;;;;28.90;3.85;;;;;;;;;;5056274;28;20029;-77
2022/07/08 01:21:55;;;;;;;20.52;3.33;;;;;;;;;;5056319;28;20033;-75
2022/07/08 01:24:21;;;;;;;25.20;3.85;;;;;;;;;;5055999;28;20037;-75
2022/07/08 01:26:47;;;;;;;18.85;3.58;;;;;;;;;;5059029;28;20030;-74
2022/07/08 01:29:17;;;;;;;26.92;3.47;;;;;;;;;;5060823;28;20105;-74
2022/07/08 01:31:43;;;;;;;19.23;3.05;;;;;;;;;;5057600;28;20049;-75
2022/07/08 01:34:09;;;;;;;36.05;3.67;;;;;;;;;;5057736;28;20041;-75
2022/07/08 01:36:38;;;;;;;23.33;3.42;;;;;;;;;;5056863;28;20029;-74
2022/07/08 01:39:05;;;;;;;27.40;3.33;;;;;;;;;;5057589;28;20018;-76
2022/07/08 01:41:32;;;;;;;21.17;3.17;;;;;;;;;;5040650;28;20049;-75
2022/07/08 01:43:58;;;;;;;28.17;3.53;;;;;;;;;;5044564;28;20085;-75
2022/07/08 01:46:24;;;;;;;21.45;2.75;;;;;;;;;;5060962;28;20060;-74
2022/07/08 01:48:54;;;;;;;25.92;3.20;;;;;;;;;;5061315;28;20041;-75
2022/07/08 01:51:20;;;;;;;22.25;4.50;;;;;;;;;;5044158;28;20033;-75
2022/07/08 01:53:47;;;;;;;16.58;2.85;;;;;;;;;;5060797;28;20016;-74
2022/07/08 01:56:13;;;;;;;20.60;3.10;;;;;;;;;;5060043;28;20089;-73
2022/07/08 01:58:39;;;;;;;16.40;3.38;;;;;;;;;;5060638;28;20033;-73
2022/07/08 02:01:05;;;;;;;23.00;3.15;;;;;;;;;;5060499;28;20010;-73
2022/07/08 02:03:31;;;;;;;27.15;3.95;;;;;;;;;;5060939;28;20044;-73
2022/07/08 02:05:58;;;;;;;18.67;2.92;;;;;;;;;;5060223;28;20093;-73
2022/07/08 02:08:24;;;;;;;20.67;3.35;;;;;;;;;;5060175;28;20029;-74
2022/07/08 02:13:35;;;;;;;25.58;3.72;;;;;;;;;;5060360;28;20105;-75
2022/07/08 02:16:04;;;;;;;22.77;3.05;;;;;;;;;;5043432;28;20025;-74
2022/07/08 02:18:31;;;;;;;20.63;3.33;;;;;;;;;;5060076;28;20017;-73
2022/07/08 02:21:02;;;;;;;21.35;3.67;;;;;;;;;;5060021;28;20014;-74
2022/07/08 02:23:46;;;;;;;20.73;3.63;;;;;;;;;;5058019;28;20029;-75
2022/07/08 02:26:12;;;;;;;21.45;3.03;;;;;;;;;;5059814;28;20014;-74
2022/07/08 02:28:38;;;;;;;25.20;3.67;;;;;;;;;;5043302;28;20035;-74
2022/07/08 02:31:04;;;;;;;24.35;3.17;;;;;;;;;;5043375;28;20022;-75
2022/07/08 02:33:31;;;;;;;22.75;2.95;;;;;;;;;;5059852;28;20022;-74
2022/07/08 02:35:57;;;;;;;19.23;3.15;;;;;;;;;;5059667;28;20081;-73
2022/07/08 02:38:25;;;;;;;16.33;3.42;;;;;;;;;;5060398;28;20010;-74
2022/07/08 02:41:06;;;;;;;23.15;3.40;;;;;;;;;;5059494;28;20017;-74
2022/07/08 02:43:33;;;;;;;18.50;3.38;;;;;;;;;;5060094;28;20017;-75
2022/07/08 02:45:59;;;;;;;19.27;2.53;;;;;;;;;;5043141;28;20063;-74
2022/07/08 02:48:25;;;;;;;20.08;2.90;;;;;;;;;;5059801;28;20018;-74
2022/07/08 02:50:51;;;;;;;20.67;2.78;;;;;;;;;;5059410;28;20091;-74
2022/07/08 02:53:20;;;;;;;25.27;4.15;;;;;;;;;;5059435;28;20030;-75
2022/07/08 02:55:47;;;;;;;20.98;2.85;;;;;;;;;;5059980;28;20069;-74
2022/07/08 02:58:13;;;;;;;31.05;3.85;;;;;;;;;;5059426;28;20063;-73
2022/07/08 03:00:39;;;;;;;23.52;3.10;;;;;;;;;;5042853;28;20097;-74
2022/07/08 03:03:05;;;;;;;22.00;3.55;;;;;;;;;;5059405;28;20029;-74
2022/07/08 03:05:35;;;;;;;23.33;3.15;;;;;;;;;;5059735;28;20024;-74
2022/07/08 03:08:01;;;;;;;24.08;3.85;;;;;;;;;;5059112;28;20033;-74
2022/07/08 03:10:27;;;;;;;22.27;3.22;;;;;;;;;;5059138;28;20021;-74
2022/07/08 03:12:54;;;;;;;17.30;2.72;;;;;;;;;;5058892;28;20021;-74
2022/07/08 03:15:20;;;;;;;19.15;3.00;;;;;;;;;;5152331;23;20085;-75
2022/07/08 03:17:46;;;;;;;23.08;3.65;;;;;;;;;;5081006;28;20010;-72
2022/07/08 03:20:13;;;;;;;24.42;3.15;;;;;;;;;;5079013;28;20043;-75
2022/07/08 03:22:42;;;;;;;28.30;4.45;;;;;;;;;;5079369;28;20021;-73
2022/07/08 03:25:21;;;;;;;22.63;3.50;;;;;;;;;;5078893;28;20073;-73
2022/07/08 03:27:54;;;;;;;19.75;3.67;;;;;;;;;;5078850;28;20023;-76
2022/07/08 03:30:20;;;;;;;15.77;2.67;;;;;;;;;;5078776;28;20105;-75
2022/07/08 03:32:46;;;;;;;20.55;3.08;;;;;;;;;;5078803;28;20013;-75
2022/07/08 03:35:16;;;;;;;23.42;3.17;;;;;;;;;;5078179;28;20013;-74
2022/07/08 03:37:45;;;;;;;27.33;4.20;;;;;;;;;;5060515;28;20059;-74
2022/07/08 03:42:57;;;;;;;22.33;3.47;;;;;;;;;;5078939;28;20031;-77
2022/07/08 03:45:43;;;;;;;24.95;3.83;;;;;;;;;;5079357;28;20063;-77
2022/07/08 03:48:10;;;;;;;16.75;3.17;;;;;;;;;;5061980;28;20029;-74
2022/07/08 03:50:47;;;;;;;20.42;2.65;;;;;;;;;;5078759;28;20013;-76
2022/07/08 03:53:15;;;;;;;13.68;2.60;;;;;;;;;;5078749;28;20032;-77
2022/07/08 03:55:41;;;;;;;19.48;3.00;;;;;;;;;;5078746;28;20005;-77
2022/07/08 03:58:12;;;;;;;23.05;3.88;;;;;;;;;;5105406;22;20036;-75
2022/07/08 04:03:13;;;;;;;25.27;3.25;;;;;;;;;;5078140;28;20044;-74
2022/07/08 04:05:42;;;;;;;17.08;2.95;;;;;;;;;;5045782;28;20021;-76
2022/07/08 04:08:14;;;;;;;25.90;3.85;;;;;;;;;;5045818;28;20055;-77
2022/07/08 04:13:13;;;;;;;22.67;4.22;;;;;;;;;;5077142;28;20053;-74
2022/07/08 04:15:39;;;;;;;23.48;3.80;;;;;;;;;;5078392;28;20032;-75
2022/07/08 04:18:05;;;;;;;20.10;3.42;;;;;;;;;;5077871;28;20026;-76
2022/07/08 04:20:34;;;;;;;20.63;3.13;;;;;;;;;;5078369;28;20017;-75
2022/07/08 04:23:02;;;;;;;20.52;3.13;;;;;;;;;;5093456;28;20043;-75
2022/07/08 04:25:33;;;;;;;20.55;2.60;;;;;;;;;;5077762;28;20021;-76
2022/07/08 04:27:59;;;;;;;20.25;3.20;;;;;;;;;;5078625;28;20017;-74
2022/07/08 04:30:25;;;;;;;22.73;3.45;;;;;;;;;;5094611;28;20028;-75
2022/07/08 04:32:52;;;;;;;25.20;3.50;;;;;;;;;;5077938;28;20009;-74
2022/07/08 04:35:18;;;;;;;22.23;3.30;;;;;;;;;;5078137;28;20021;-74
2022/07/08 04:37:44;;;;;;;22.98;3.13;;;;;;;;;;5078379;28;20009;-75
2022/07/08 04:40:11;;;;;;;26.40;3.17;;;;;;;;;;5078102;28;20044;-75
2022/07/08 04:42:37;;;;;;;21.10;3.28;;;;;;;;;;5060488;28;20025;-73
2022/07/08 04:45:03;;;;;;;26.70;4.07;;;;;;;;;;5077283;28;20016;-72
2022/07/08 04:47:29;;;;;;;20.70;3.10;;;;;;;;;;5076925;28;20018;-72
2022/07/08 04:49:55;;;;;;;18.52;3.08;;;;;;;;;;5077722;28;20041;-73
2022/07/08 04:52:21;;;;;;;23.38;3.05;;;;;;;;;;5077724;28;20028;-73
2022/07/08 04:54:47;;;;;;;21.80;3.03;;;;;;;;;;5076953;28;20013;-73
2022/07/08 04:57:13;;;;;;;22.17;3.17;;;;;;;;;;5077212;28;20005;-73
2022/07/08 04:59:39;;;;;;;20.50;3.28;;;;;;;;;;5075965;28;20029;-74
2022/07/08 05:02:05;;;;;;;23.17;2.92;;;;;;;;;;5073584;28;20031;-74
2022/07/08 05:04:32;;;;;;;18.23;2.67;;;;;;;;;;5072816;28;20036;-74
2022/07/08 05:06:58;;;;;;;20.02;3.17;;;;;;;;;;5073964;28;20107;-74
2022/07/08 05:09:23;;;;;;;31.40;3.38;;;;;;;;;;5075232;28;20034;-77
2022/07/08 05:11:50;;;;;;;17.58;3.10;;;;;;;;;;5073802;28;20012;-76
2022/07/08 05:14:16;;;;;;;20.17;2.88;;;;;;;;;;5075124;28;20020;-76
2022/07/08 05:16:43;;;;;;;16.80;3.15;;;;;;;;;;5074661;28;20029;-76
2022/07/08 05:19:09;;;;;;;23.98;2.97;;;;;;;;;;5074584;28;20021;-77
2022/07/08 05:21:38;;;;;;;13.30;2.45;;;;;;;;;;5074721;28;20084;-77
2022/07/08 05:24:05;;;;;;;23.02;2.90;;;;;;;;;;5073560;28;20060;-77
2022/07/08 05:26:33;;;;;;;15.98;3.28;;;;;;;;;;5073174;28;20032;-77
2022/07/08 05:28:59;;;;;;;16.25;2.70;;;;;;;;;;5073320;28;20020;-77
2022/07/08 05:31:28;;;;;;;17.35;2.50;;;;;;;;;;5074014;28;20060;-76
2022/07/08 05:33:54;;;;;;;22.58;3.28;;;;;;;;;;5073050;28;20028;-76
2022/07/08 05:36:20;;;;;;;23.30;3.05;;;;;;;;;;5074227;28;20022;-75
2022/07/08 05:38:46;;;;;;;23.50;2.90;;;;;;;;;;5073958;28;20025;-77
2022/07/08 05:41:12;;;;;;;24.17;2.97;;;;;;;;;;5074681;28;20040;-74
2022/07/08 05:43:38;;;;;;;20.88;3.65;;;;;;;;;;5076787;28;20013;-74
2022/07/08 05:51:09;;;;;;;29.25;3.50;;;;;;;;;;5054548;28;20025;-74
2022/07/08 05:53:36;;;;;;;21.13;3.45;;;;;;;;;;5062657;23;20033;-74
2022/07/08 05:56:03;;;;;;;20.17;2.80;;;;;;;;;;5060444;28;20021;-74
2022/07/08 05:58:30;;;;;;;28.45;3.08;;;;;;;;;;5060706;28;20024;-75
2022/07/08 06:00:55;;;;;;;26.85;3.58;;;;;;;;;;5066073;23;20041;-73
2022/07/08 06:03:21;;;;;;;21.02;2.78;;;;;;;;;;5080915;28;20028;-74
2022/07/08 06:05:47;;;;;;;22.83;2.45;;;;;;;;;;5080398;28;20013;-74
2022/07/08 06:10:53;;;;;;;27.10;3.05;;;;;;;;;;5078216;28;20040;-77
2022/07/08 06:13:19;;;;;;;28.58;3.25;;;;;;;;;;5047490;28;20021;-75
2022/07/08 06:18:19;;;;;;;24.63;2.92;;;;;;;;;;5078666;28;20045;-74
2022/07/08 06:20:45;;;;;;;36.88;3.92;;;;;;;;;;5063336;28;20025;-74
2022/07/08 06:23:12;;;;;;;19.48;3.08;;;;;;;;;;5063179;28;20020;-74
2022/07/08 06:25:42;;;;;;;18.10;3.10;;;;;;;;;;5046721;28;20281;-76
2022/07/08 06:28:09;;;;;;;20.42;2.42;;;;;;;;;;5063529;28;20021;-73
2022/07/08 06:30:48;;;;;;;11.65;2.42;;;;;;;;;;5064504;28;20052;-74
2022/07/08 06:33:14;;;;;;;22.75;3.08;;;;;;;;;;5046879;28;20093;-74
2022/07/08 06:35:40;;;;;;;25.75;3.35;;;;;;;;;;5063217;28;20109;-74
2022/07/08 06:38:07;;;;;;;22.23;3.10;;;;;;;;;;5080327;28;20025;-74
2022/07/08 06:40:33;;;;;;;23.45;3.83;;;;;;;;;;5080519;28;20043;-73
2022/07/08 06:43:00;;;;;;;20.15;3.47;;;;;;;;;;5063048;28;20068;-75
2022/07/08 06:45:27;;;;;;;15.38;2.88;;;;;;;;;;5063032;28;20009;-74
2022/07/08 06:47:54;;;;;;;22.23;2.95;;;;;;;;;;5080131;28;20002;-75
2022/07/08 06:50:40;;;;;;;19.98;3.08;;;;;;;;;;5079969;28;20032;-73
2022/07/08 06:53:13;;;;;;;21.67;3.80;;;;;;;;;;5064086;28;20043;-74
2022/07/08 06:55:40;;;;;;;23.33;2.95;;;;;;;;;;5062938;28;20051;-75
2022/07/08 06:58:06;;;;;;;19.48;2.50;;;;;;;;;;5062956;28;20024;-74
2022/07/08 07:00:33;;;;;;;20.88;2.63;;;;;;;;;;5062711;28;20016;-75
2022/07/08 07:03:00;;;;;;;24.20;2.88;;;;;;;;;;5061937;28;20037;-78
2022/07/08 07:05:49;;;;;;;20.02;2.60;;;;;;;;;;5065266;28;20021;-73
2022/07/08 07:08:15;;;;;;;17.52;2.80;;;;;;;;;;5046360;28;20080;-74
2022/07/08 07:11:02;;;;;;;11.52;2.53;;;;;;;;;;5062045;28;20100;-74
2022/07/08 07:13:49;;;;;;;21.27;3.08;;;;;;;;;;5079188;28;20049;-75
2022/07/08 07:16:18;;;;;;;18.73;3.05;;;;;;;;;;5079383;28;20040;-74
2022/07/08 07:18:44;;;;;;;19.95;2.50;;;;;;;;;;5062597;28;20044;-74
2022/07/08 07:21:10;;;;;;;17.80;2.70;;;;;;;;;;5062181;28;20039;-74
2022/07/08 07:23:41;;;;;;;17.63;3.05;;;;;;;;;;5079600;28;20065;-76
2022/07/08 07:26:53;;;;;;;15.43;2.65;;;;;;;;;;5065105;28;20025;-74
2022/07/08 07:29:19;;;;;;;15.82;2.67;;;;;;;;;;5078999;28;20024;-73
2022/07/08 07:31:47;;;;;;;22.52;3.05;;;;;;;;;;5078918;28;20019;-74
2022/07/08 07:34:14;;;;;;;22.55;3.40;;;;;;;;;;5079039;28;20032;-75
2022/07/08 07:36:41;;;;;;;23.17;3.53;;;;;;;;;;5061915;28;20020;-75
2022/07/08 07:39:09;;;;;;;21.15;3.25;;;;;;;;;;5078794;28;20005;-73
2022/07/08 07:41:36;;;;;;;22.55;4.25;;;;;;;;;;5062143;28;20035;-73
2022/07/08 07:44:02;;;;;;;21.10;5.63;;;;;;;;;;5061789;28;20045;-73
2022/07/08 07:46:28;;;;;;;29.52;5.00;;;;;;;;;;5061507;28;20025;-74
2022/07/08 07:48:54;;;;;;;27.73;3.80;;;;;;;;;;5045385;28;20209;-73
2022/07/08 07:51:21;;;;;;;28.75;3.53;;;;;;;;;;5061682;28;20028;-75
2022/07/08 07:53:47;;;;;;;24.48;3.42;;;;;;;;;;5061418;28;20009;-74
2022/07/08 07:56:14;;;;;;;24.23;3.90;;;;;;;;;;5078383;28;20080;-74
2022/07/08 07:58:40;;;;;;;18.52;3.38;;;;;;;;;;5078515;28;20024;-74
2022/07/08 08:01:06;;;;;;;24.70;3.58;;;;;;;;;;5061137;28;20005;-75
2022/07/08 08:03:33;;;;;;;19.20;2.97;;;;;;;;;;5061276;28;20067;-74
2022/07/08 08:05:59;;;;;;;25.15;3.42;;;;;;;;;;5044747;28;20013;-75
2022/07/08 08:08:31;;;;;;;18.98;3.20;;;;;;;;;;5044778;28;20017;-75
2022/07/08 08:10:58;;;;;;;24.45;3.05;;;;;;;;;;5061158;28;20023;-74
2022/07/08 08:13:26;;;;;;;19.13;2.70;;;;;;;;;;5061254;28;20009;-74
2022/07/08 08:15:52;;;;;;;22.65;3.30;;;;;;;;;;5060844;28;20035;-75
2022/07/08 08:18:18;;;;;;;13.18;2.33;;;;;;;;;;5060017;28;20586;-77
2022/07/08 08:20:45;;;;;;;19.88;3.03;;;;;;;;;;5061594;28;20044;-77
2022/07/08 08:23:11;;;;;;;14.90;2.80;;;;;;;;;;5063918;28;20024;-78
2022/07/08 08:25:37;;;;;;;13.57;2.85;;;;;;;;;;5045416;28;20450;-78
2022/07/08 08:28:03;;;;;;;14.13;2.75;;;;;;;;;;5070554;28;20040;-78
2022/07/08 08:30:30;;;;;;;13.90;2.95;;;;;;;;;;5071741;28;20090;-77
2022/07/08 08:32:55;;;;;;;14.30;2.70;;;;;;;;;;5065934;28;20025;-78
2022/07/08 08:35:22;;;;;;;16.65;2.85;;;;;;;;;;5065750;28;20025;-78
2022/07/08 08:37:48;;;;;;;13.20;3.53;;;;;;;;;;5065650;28;20081;-77
2022/07/08 08:40:14;;;;;;;16.00;3.38;;;;;;;;;;5066675;28;20036;-76
2022/07/08 08:42:41;;;;;;;26.90;6.15;;;;;;;;;;5061141;28;20021;-78
2022/07/08 08:45:07;;;;;;;15.15;3.25;;;;;;;;;;5048031;28;20033;-80
2022/07/08 08:47:35;;;;;;;15.02;3.40;;;;;;;;;;5063644;28;20643;-78
2022/07/08 08:50:53;;;;;;;19.83;3.65;;;;;;;;;;5060911;28;20032;-78
2022/07/08 08:52:51;;;;;;;16.83;2.70;;;;;;;;;;5061474;28;20101;-80
2022/07/08 08:55:25;;;;;;;12.38;2.45;;;;;;;;;;5046401;28;20033;-77
2022/07/08 08:57:51;;;;;;;19.23;2.80;;;;;;;;;;5044831;28;20021;-76
2022/07/08 09:00:17;;;;;;;11.15;2.70;;;;;;;;;;5060559;28;20385;-76
2022/07/08 09:02:43;;;;;;;16.13;3.22;;;;;;;;;;5054987;28;20021;-75
2022/07/08 09:05:09;;;;;;;10.18;2.53;;;;;;;;;;5039119;28;20515;-77
2022/07/08 09:07:35;;;;;;;8.48;2.03;;;;;;;;;;5063831;28;20071;-77
2022/07/08 09:10:01;;;;;;;6.78;1.98;;;;;;;;;;5045624;28;20035;-79
2022/07/08 09:12:27;;;;;;;12.90;2.28;;;;;;;;;;5042787;28;20097;-76
2022/07/08 09:14:54;;;;;;;9.57;1.98;;;;;;;;;;5046164;28;20033;-76
2022/07/08 09:17:21;;;;;;;8.65;1.83;;;;;;;;;;5060496;28;20029;-79
2022/07/08 09:19:49;;;;;;;12.32;1.88;;;;;;;;;;5058745;28;20032;-76
2022/07/08 09:22:15;;;;;;;5.88;1.40;;;;;;;;;;5056239;28;20051;-78
2022/07/08 09:24:40;;;;;;;9.80;2.38;;;;;;;;;;5055468;28;20556;-78
2022/07/08 09:27:10;;;;;;;11.23;2.38;;;;;;;;;;5044937;28;20028;-80
2022/07/08 09:29:39;;;;;;;11.50;1.90;;;;;;;;;;5047257;28;20047;-77
2022/07/08 09:32:11;;;;;;;8.43;2.08;;;;;;;;;;5060854;28;20044;-77
2022/07/08 09:34:37;;;;;;;7.05;1.50;;;;;;;;;;5066034;28;20434;-78
2022/07/08 09:37:10;;;;;;;6.88;1.70;;;;;;;;;;5051207;28;20025;-77
2022/07/08 09:39:36;;;;;;;7.38;1.80;;;;;;;;;;5065542;28;20021;-78
2022/07/08 09:42:02;;;;;;;12.63;3.78;;;;;;;;;;5051116;28;20021;-77
2022/07/08 09:44:28;;;;;;;10.40;4.90;;;;;;;;;;5044988;28;20033;-78
2022/07/08 09:46:54;;;;;;;3.63;1.60;;;;;;;;;;5042561;28;20079;-77
2022/07/08 09:49:31;;;;;;;4.28;1.20;;;;;;;;;;5041626;28;20505;-79
2022/07/08 09:51:57;;;;;;;6.57;1.77;;;;;;;;;;5058998;28;20021;-76
2022/07/08 09:54:24;;;;;;;5.47;1.90;;;;;;;;;;5057559;28;20052;-77
2022/07/08 09:57:00;;;;;;;4.88;2.00;;;;;;;;;;5059804;28;20033;-77
2022/07/08 09:59:27;;;;;;;9.48;2.97;;;;;;;;;;5063935;28;20028;-77
2022/07/08 10:01:53;;;;;;;6.82;1.92;;;;;;;;;;5051428;28;20021;-77
2022/07/08 10:04:19;;;;;;;5.72;1.88;;;;;;;;;;5061901;28;20029;-77
2022/07/08 10:06:45;;;;;;;8.40;1.90;;;;;;;;;;5061293;28;20029;-77
2022/07/08 10:09:11;;;;;;;6.22;2.35;;;;;;;;;;5066001;28;20029;-77
2022/07/08 10:11:38;;;;;;;8.18;2.10;;;;;;;;;;5062763;28;20025;-78
2022/07/08 10:14:06;;;;;;;4.38;1.80;;;;;;;;;;5060152;28;20033;-79
2022/07/08 10:16:32;;;;;;;6.78;2.05;;;;;;;;;;5056995;28;20021;-78
2022/07/08 10:18:59;;;;;;;6.13;1.88;;;;;;;;;;5056190;28;20040;-76
2022/07/08 10:21:27;;;;;;;9.10;4.00;;;;;;;;;;5056926;28;20067;-76
2022/07/08 10:23:53;;;;;;;8.65;2.10;;;;;;;;;;5040999;28;20082;-78
2022/07/08 10:26:25;;;;;;;7.78;1.92;;;;;;;;;;5058725;28;20091;-78
2022/07/08 10:29:08;;;;;;;8.70;2.17;;;;;;;;;;5060269;28;20021;-79
2022/07/08 10:31:43;;;;;;;5.63;1.48;;;;;;;;;;5057781;28;20025;-78
2022/07/08 10:34:09;;;;;;;5.88;2.00;;;;;;;;;;5045658;28;20045;-78
2022/07/08 10:37:01;;;;;;;7.47;2.08;;;;;;;;;;5045932;28;20028;-78
2022/07/08 10:39:31;;;;;;;8.15;2.00;;;;;;;;;;5038059;28;20037;-80
2022/07/08 10:42:07;;;;;;;12.88;2.45;;;;;;;;;;5046179;28;20108;-77
2022/07/08 10:44:46;;;;;;;12.98;2.70;;;;;;;;;;5062627;28;20028;-77
2022/07/08 10:47:32;;;;;;;13.82;2.83;;;;;;;;;;5062273;28;20025;-76
2022/07/08 10:50:08;;;;;;;6.80;1.80;;;;;;;;;;5046208;28;20024;-76
2022/07/08 10:52:41;;;;;;;11.73;2.40;;;;;;;;;;5064103;28;20017;-77
2022/07/08 10:55:08;;;;;;;8.55;2.17;;;;;;;;;;5064237;28;20080;-78
2022/07/08 10:57:35;;;;;;;8.77;2.83;;;;;;;;;;5066180;28;20021;-78
2022/07/08 11:00:07;;;;;;;12.27;3.17;;;;;;;;;;5040722;28;20032;-78
2022/07/08 11:02:38;;;;;;;8.32;1.77;;;;;;;;;;5059462;28;20037;-77
2022/07/08 11:05:04;;;;;;;16.88;5.80;;;;;;;;;;5060168;28;20025;-78
2022/07/08 11:07:30;;;;;;;15.43;3.33;;;;;;;;;;5058752;28;20035;-79
2022/07/08 11:10:03;;;;;;;5.85;1.70;;;;;;;;;;5057519;28;20061;-79
2022/07/08 11:12:30;;;;;;;8.77;1.73;;;;;;;;;;5057867;28;20025;-79
2022/07/08 11:14:57;;;;;;;7.82;2.05;;;;;;;;;;5057125;28;20055;-77
2022/07/08 11:17:24;;;;;;;8.68;2.10;;;;;;;;;;5057666;28;20092;-78
2022/07/08 11:19:54;;;;;;;11.02;2.17;;;;;;;;;;5060378;28;20056;-77
2022/07/08 11:22:21;;;;;;;8.68;1.70;;;;;;;;;;5060440;28;20032;-79
2022/07/08 11:24:47;;;;;;;8.65;2.30;;;;;;;;;;5045085;28;20029;-77
2022/07/08 11:27:13;;;;;;;8.13;2.20;;;;;;;;;;5047082;28;20028;-77
2022/07/08 11:29:49;;;;;;;9.15;2.15;;;;;;;;;;5059625;28;20035;-77
2022/07/08 11:32:17;;;;;;;8.05;1.67;;;;;;;;;;5041254;28;20017;-77
2022/07/08 11:34:43;;;;;;;9.45;2.20;;;;;;;;;;5059842;28;20021;-77
2022/07/08 11:37:09;;;;;;;6.53;1.80;;;;;;;;;;5060696;28;20096;-77
2022/07/08 11:39:35;;;;;;;8.75;2.85;;;;;;;;;;5057672;28;20154;-78
2022/07/08 11:42:02;;;;;;;5.80;1.30;;;;;;;;;;5057914;28;20052;-79
2022/07/08 11:44:28;;;;;;;8.23;1.70;;;;;;;;;;5056595;28;20049;-77
2022/07/08 11:46:54;;;;;;;3.78;1.23;;;;;;;;;;5061260;28;20025;-78
2022/07/08 11:49:21;;;;;;;18.08;8.88;;;;;;;;;;5061270;28;20029;-76
2022/07/08 11:51:51;;;;;;;9.18;2.85;;;;;;;;;;5058591;28;20048;-77
2022/07/08 11:54:21;;;;;;;4.88;1.83;;;;;;;;;;5063365;28;20065;-79
2022/07/08 11:56:48;;;;;;;5.57;1.52;;;;;;;;;;5042393;28;20017;-78
2022/07/08 11:59:20;;;;;;;9.10;2.90;;;;;;;;;;5061305;28;20025;-77
2022/07/08 12:01:47;;;;;;;15.23;2.03;;;;;;;;;;5061924;28;20025;-77
2022/07/08 12:04:13;;;;;;;9.75;2.05;;;;;;;;;;5074017;28;20013;-78
2022/07/08 12:06:45;;;;;;;10.30;2.35;;;;;;;;;;5074609;28;20063;-78
2022/07/08 12:09:11;;;;;;;8.38;2.33;;;;;;;;;;5071328;28;20037;-78
2022/07/08 12:11:42;;;;;;;12.88;2.90;;;;;;;;;;5063266;28;20029;-78
2022/07/08 12:14:08;;;;;;;9.23;2.25;;;;;;;;;;5061692;28;20025;-79
2022/07/08 12:16:42;;;;;;;10.68;2.70;;;;;;;;;;5060545;28;20114;-76
2022/07/08 12:19:24;;;;;;;7.73;2.13;;;;;;;;;;5060113;28;20029;-78
2022/07/08 12:21:50;;;;;;;9.15;2.03;;;;;;;;;;5045390;28;20025;-78
2022/07/08 12:24:18;;;;;;;10.98;2.95;;;;;;;;;;5065581;28;20080;-78
2022/07/08 12:26:54;;;;;;;12.13;2.65;;;;;;;;;;5064676;28;20028;-78
2022/07/08 12:29:20;;;;;;;9.30;2.08;;;;;;;;;;5067529;28;20062;-77
2022/07/08 12:31:46;;;;;;;11.10;2.72;;;;;;;;;;5056702;28;20024;-78
2022/07/08 12:34:16;;;;;;;15.48;3.17;;;;;;;;;;5056144;28;20025;-78
2022/07/08 12:36:42;;;;;;;12.48;2.45;;;;;;;;;;5057001;28;20037;-78
2022/07/08 12:39:14;;;;;;;7.22;1.90;;;;;;;;;;5063434;28;20029;-77
2022/07/08 12:41:40;;;;;;;12.20;2.72;;;;;;;;;;5057097;28;20390;-78
2022/07/08 12:44:25;;;;;;;8.82;2.25;;;;;;;;;;5059249;28;20025;-77
2022/07/08 12:46:51;;;;;;;13.00;2.22;;;;;;;;;;5058492;28;20048;-78
2022/07/08 12:49:23;;;;;;;11.73;2.55;;;;;;;;;;5060276;28;20032;-78
2022/07/08 12:51:50;;;;;;;15.68;2.47;;;;;;;;;;5059871;28;20463;-78
2022/07/08 12:54:17;;;;;;;10.88;2.47;;;;;;;;;;5058525;28;20151;-78
2022/07/08 12:56:43;;;;;;;12.05;2.20;;;;;;;;;;5057596;28;20030;-78
2022/07/08 12:59:09;;;;;;;11.02;2.95;;;;;;;;;;5038733;28;20544;-78
2022/07/08 13:01:35;;;;;;;12.25;3.00;;;;;;;;;;5055803;28;20051;-79
2022/07/08 13:04:02;;;;;;;16.88;3.03;;;;;;;;;;5056172;28;20100;-77
2022/07/08 13:06:28;;;;;;;12.02;2.67;;;;;;;;;;5055260;28;20388;-79
2022/07/08 13:08:54;;;;;;;14.07;2.92;;;;;;;;;;5058176;28;20040;-78
2022/07/08 13:11:20;;;;;;;16.25;2.58;;;;;;;;;;5060242;28;20088;-78
2022/07/08 13:13:46;;;;;;;12.02;3.38;;;;;;;;;;5061222;28;20025;-78
2022/07/08 13:16:12;;;;;;;15.88;3.50;;;;;;;;;;5061918;28;20033;-79
2022/07/08 13:18:38;;;;;;;12.98;3.22;;;;;;;;;;5061352;28;20112;-80
2022/07/08 13:21:04;;;;;;;11.18;2.42;;;;;;;;;;5061311;28;20029;-79
2022/07/08 13:23:30;;;;;;;9.27;2.20;;;;;;;;;;5062624;28;20033;-82
2022/07/08 13:25:56;;;;;;;14.85;2.15;;;;;;;;;;5061842;28;20025;-80
2022/07/08 13:28:22;;;;;;;11.30;2.20;;;;;;;;;;5065358;28;20029;-80
2022/07/08 13:30:47;;;;;;;11.90;2.10;;;;;;;;;;5064781;28;20535;-78
2022/07/08 13:33:13;;;;;;;7.57;2.00;;;;;;;;;;5066658;28;20029;-79
2022/07/08 13:35:40;;;;;;;9.20;1.85;;;;;;;;;;5071887;23;20525;-77
2022/07/08 13:38:06;;;;;;;9.65;1.88;;;;;;;;;;5067999;28;20037;-78
2022/07/08 13:40:32;;;;;;;7.28;1.70;;;;;;;;;;5041137;28;20055;-79
2022/07/08 13:42:58;;;;;;;6.72;1.45;;;;;;;;;;5057350;28;20021;-78
2022/07/08 13:45:24;;;;;;;8.00;1.70;;;;;;;;;;5059357;28;20029;-80
2022/07/08 13:47:51;;;;;;;8.85;1.50;;;;;;;;;;5060206;28;20104;-78
2022/07/08 13:50:17;;;;;;;10.07;1.92;;;;;;;;;;5059845;28;20460;-77
2022/07/08 13:52:43;;;;;;;6.40;1.52;;;;;;;;;;5064370;28;20029;-79
2022/07/08 13:55:09;;;;;;;10.90;1.70;;;;;;;;;;5064530;28;20021;-78
2022/07/08 13:57:35;;;;;;;10.27;2.30;;;;;;;;;;5065986;28;20470;-78
2022/07/08 14:00:02;;;;;;;14.82;2.30;;;;;;;;;;5065262;28;20036;-79
2022/07/08 14:02:28;;;;;;;13.30;1.98;;;;;;;;;;5064131;28;20461;-77
2022/07/08 14:04:54;;;;;;;10.60;2.67;;;;;;;;;;5060971;28;20036;-77
2022/07/08 14:07:20;;;;;;;11.55;2.00;;;;;;;;;;5065797;28;20025;-77
2022/07/08 14:09:46;;;;;;;13.20;2.45;;;;;;;;;;5069634;28;20048;-77
2022/07/08 14:12:12;;;;;;;9.52;2.35;;;;;;;;;;5068914;28;20109;-79
2022/07/08 14:14:40;;;;;;;10.50;2.63;;;;;;;;;;5069482;28;20070;-76
2022/07/08 14:17:08;;;;;;;12.95;2.55;;;;;;;;;;5066990;28;20032;-78
2022/07/08 14:19:34;;;;;;;12.68;2.20;;;;;;;;;;5063938;28;20021;-77
2022/07/08 14:22:01;;;;;;;12.05;2.40;;;;;;;;;;5074514;28;20035;-77
2022/07/08 14:24:27;;;;;;;13.90;2.50;;;;;;;;;;5061684;28;20374;-77
2022/07/08 14:26:53;;;;;;;14.80;3.25;;;;;;;;;;5058646;28;20032;-77
2022/07/08 14:29:19;;;;;;;17.27;6.18;;;;;;;;;;5058737;28;20047;-77
2022/07/08 14:31:45;;;;;;;14.75;2.67;;;;;;;;;;5057541;28;20025;-76
2022/07/08 14:34:11;;;;;;;12.80;2.63;;;;;;;;;;5058836;28;20032;-78
2022/07/08 14:36:37;;;;;;;12.13;2.55;;;;;;;;;;5053010;28;20037;-78
2022/07/08 14:39:03;;;;;;;12.90;2.40;;;;;;;;;;5050236;28;20039;-78
2022/07/08 14:41:29;;;;;;;13.52;2.60;;;;;;;;;;5047668;28;20029;-76
2022/07/08 14:43:55;;;;;;;10.20;2.30;;;;;;;;;;5046111;28;20047;-79
2022/07/08 14:46:21;;;;;;;14.55;2.47;;;;;;;;;;5046808;28;20041;-78
2022/07/08 14:48:47;;;;;;;8.55;2.17;;;;;;;;;;5042120;28;20048;-77
2022/07/08 14:51:13;;;;;;;12.23;2.28;;;;;;;;;;5045727;28;20091;-78
2022/07/08 14:53:39;;;;;;;11.10;2.40;;;;;;;;;;5045264;28;20021;-77
2022/07/08 14:56:05;;;;;;;9.57;2.28;;;;;;;;;;5038842;28;20493;-76
2022/07/08 14:58:31;;;;;;;14.30;2.30;;;;;;;;;;5043812;28;20017;-77